sensor_id;sensor_type;location;lat;lon;timestamp;pressure;altitude;pressure_sealevel;temperature;humidity
61870;BME280;47810;42.264;23.826;2023-02-19T00:00:29;94008.84;;;7.13;57.05
61870;BME280;47810;42.264;23.826;2023-02-19T00:02:54;94001.03;;;7.11;56.87
61870;BME280;47810;42.264;23.826;2023-02-19T00:05:22;94010.63;;;7.30;56.31
61870;BME280;47810;42.264;23.826;2023-02-19T00:07:48;94013.56;;;7.41;56.02
61870;BME280;47810;42.264;23.826;2023-02-19T00:10:26;94008.63;;;7.52;55.73
61870;BME280;47810;42.264;23.826;2023-02-19T00:12:52;94010.00;;;7.59;55.18
61870;BME280;47810;42.264;23.826;2023-02-19T00:15:19;94013.78;;;7.54;55.34
61870;BME280;47810;42.264;23.826;2023-02-19T00:17:44;94016.34;;;7.55;55.72
61870;BME280;47810;42.264;23.826;2023-02-19T00:20:10;94014.78;;;7.51;55.64
61870;BME280;47810;42.264;23.826;2023-02-19T00:22:35;94017.44;;;7.34;56.15
61870;BME280;47810;42.264;23.826;2023-02-19T00:25:02;94004.44;;;7.13;56.89
61870;BME280;47810;42.264;23.826;2023-02-19T00:27:28;94013.53;;;7.06;57.04
61870;BME280;47810;42.264;23.826;2023-02-19T00:29:53;94020.66;;;7.04;57.14
61870;BME280;47810;42.264;23.826;2023-02-19T00:32:19;94018.19;;;7.01;57.54
61870;BME280;47810;42.264;23.826;2023-02-19T00:34:46;94012.72;;;6.87;58.02
61870;BME280;47810;42.264;23.826;2023-02-19T00:37:11;94009.22;;;6.88;57.71
61870;BME280;47810;42.264;23.826;2023-02-19T00:39:38;94011.19;;;6.83;57.85
61870;BME280;47810;42.264;23.826;2023-02-19T00:42:06;93997.19;;;7.01;57.51
61870;BME280;47810;42.264;23.826;2023-02-19T00:44:31;93999.81;;;7.01;57.98
61870;BME280;47810;42.264;23.826;2023-02-19T00:46:57;93995.44;;;6.83;58.15
61870;BME280;47810;42.264;23.826;2023-02-19T00:49:22;94008.91;;;6.94;58.38
61870;BME280;47810;42.264;23.826;2023-02-19T00:51:50;94001.28;;;6.70;58.81
61870;BME280;47810;42.264;23.826;2023-02-19T00:54:16;93999.63;;;6.87;58.62
61870;BME280;47810;42.264;23.826;2023-02-19T00:56:43;94003.03;;;6.89;57.70
61870;BME280;47810;42.264;23.826;2023-02-19T00:59:09;94003.00;;;6.71;58.44
61870;BME280;47810;42.264;23.826;2023-02-19T01:01:35;93993.59;;;6.85;57.98
61870;BME280;47810;42.264;23.826;2023-02-19T01:04:01;94006.81;;;6.64;58.51
61870;BME280;47810;42.264;23.826;2023-02-19T01:06:27;94004.31;;;6.44;59.33
61870;BME280;47810;42.264;23.826;2023-02-19T01:08:55;94009.53;;;6.44;59.47
61870;BME280;47810;42.264;23.826;2023-02-19T01:11:21;94002.91;;;6.73;58.15
61870;BME280;47810;42.264;23.826;2023-02-19T01:13:46;93999.28;;;6.58;58.27
61870;BME280;47810;42.264;23.826;2023-02-19T01:16:15;94001.56;;;6.64;57.97
61870;BME280;47810;42.264;23.826;2023-02-19T01:18:43;93996.66;;;6.58;58.17
61870;BME280;47810;42.264;23.826;2023-02-19T01:21:11;93981.88;;;6.74;57.30
61870;BME280;47810;42.264;23.826;2023-02-19T01:23:37;93973.78;;;6.60;57.75
61870;BME280;47810;42.264;23.826;2023-02-19T01:26:04;93968.09;;;6.52;58.38
61870;BME280;47810;42.264;23.826;2023-02-19T01:28:30;93974.19;;;6.34;59.51
61870;BME280;47810;42.264;23.826;2023-02-19T01:30:59;93974.66;;;6.42;59.20
61870;BME280;47810;42.264;23.826;2023-02-19T01:33:24;93968.84;;;6.54;58.86
61870;BME280;47810;42.264;23.826;2023-02-19T01:36:08;93961.91;;;6.53;58.66
61870;BME280;47810;42.264;23.826;2023-02-19T01:38:35;93962.69;;;6.55;58.59
61870;BME280;47810;42.264;23.826;2023-02-19T01:41:02;93967.16;;;6.53;58.58
61870;BME280;47810;42.264;23.826;2023-02-19T01:43:28;93967.66;;;6.79;57.68
61870;BME280;47810;42.264;23.826;2023-02-19T01:45:55;93971.13;;;6.43;58.79
61870;BME280;47810;42.264;23.826;2023-02-19T01:50:54;93977.94;;;6.47;58.64
61870;BME280;47810;42.264;23.826;2023-02-19T01:53:24;93980.56;;;6.47;58.23
61870;BME280;47810;42.264;23.826;2023-02-19T01:55:54;93969.13;;;6.48;58.41
61870;BME280;47810;42.264;23.826;2023-02-19T01:58:22;93974.44;;;6.65;57.95
61870;BME280;47810;42.264;23.826;2023-02-19T02:00:49;93968.84;;;6.54;58.11
61870;BME280;47810;42.264;23.826;2023-02-19T02:03:17;93974.81;;;6.39;59.05
61870;BME280;47810;42.264;23.826;2023-02-19T02:08:11;93998.91;;;6.47;58.63
61870;BME280;47810;42.264;23.826;2023-02-19T02:10:57;93989.38;;;6.63;57.88
61870;BME280;47810;42.264;23.826;2023-02-19T02:13:22;93987.84;;;6.59;58.13
61870;BME280;47810;42.264;23.826;2023-02-19T02:16:09;93998.50;;;6.37;59.25
61870;BME280;47810;42.264;23.826;2023-02-19T02:23:42;93969.75;;;6.36;59.09
61870;BME280;47810;42.264;23.826;2023-02-19T02:26:19;93974.09;;;6.35;58.29
61870;BME280;47810;42.264;23.826;2023-02-19T02:29:05;93973.47;;;6.49;57.78
61870;BME280;47810;42.264;23.826;2023-02-19T02:31:39;93980.59;;;6.64;57.46
61870;BME280;47810;42.264;23.826;2023-02-19T02:34:11;94004.00;;;6.69;57.69
61870;BME280;47810;42.264;23.826;2023-02-19T02:36:40;93985.28;;;6.58;56.95
61870;BME280;47810;42.264;23.826;2023-02-19T02:39:10;93993.16;;;6.58;57.21
61870;BME280;47810;42.264;23.826;2023-02-19T02:41:43;93982.88;;;6.53;57.46
61870;BME280;47810;42.264;23.826;2023-02-19T02:44:09;93984.66;;;6.89;56.34
61870;BME280;47810;42.264;23.826;2023-02-19T02:46:34;93990.72;;;6.72;56.38
61870;BME280;47810;42.264;23.826;2023-02-19T02:49:08;93999.19;;;6.60;57.11
61870;BME280;47810;42.264;23.826;2023-02-19T02:51:44;94000.00;;;6.43;58.07
61870;BME280;47810;42.264;23.826;2023-02-19T02:56:55;94007.59;;;6.66;57.11
61870;BME280;47810;42.264;23.826;2023-02-19T02:59:22;94011.03;;;6.30;57.62
61870;BME280;47810;42.264;23.826;2023-02-19T03:01:53;94014.94;;;6.41;57.44
61870;BME280;47810;42.264;23.826;2023-02-19T03:10:11;94028.03;;;5.82;60.24
61870;BME280;47810;42.264;23.826;2023-02-19T03:12:39;94023.56;;;6.05;59.66
61870;BME280;47810;42.264;23.826;2023-02-19T03:15:25;94029.09;;;5.99;59.76
61870;BME280;47810;42.264;23.826;2023-02-19T03:18:10;94033.06;;;6.07;59.69
61870;BME280;47810;42.264;23.826;2023-02-19T03:20:56;94037.53;;;6.05;59.61
61870;BME280;47810;42.264;23.826;2023-02-19T03:23:23;94025.94;;;5.91;59.80
61870;BME280;47810;42.264;23.826;2023-02-19T03:26:10;94023.25;;;5.92;59.83
61870;BME280;47810;42.264;23.826;2023-02-19T03:28:37;94010.97;;;5.94;59.65
61870;BME280;47810;42.264;23.826;2023-02-19T03:31:23;94018.00;;;5.92;59.85
61870;BME280;47810;42.264;23.826;2023-02-19T03:33:52;94021.59;;;6.10;59.01
61870;BME280;47810;42.264;23.826;2023-02-19T03:36:21;94021.03;;;6.22;58.98
61870;BME280;47810;42.264;23.826;2023-02-19T03:46:44;94028.47;;;6.32;58.42
61870;BME280;47810;42.264;23.826;2023-02-19T03:49:37;94022.09;;;6.37;58.11
61870;BME280;47810;42.264;23.826;2023-02-19T03:52:10;94022.44;;;6.48;57.43
61870;BME280;47810;42.264;23.826;2023-02-19T03:54:46;94024.84;;;6.53;57.57
61870;BME280;47810;42.264;23.826;2023-02-19T03:57:16;94029.03;;;6.38;58.06
61870;BME280;47810;42.264;23.826;2023-02-19T04:04:46;94050.28;;;6.51;57.65
61870;BME280;47810;42.264;23.826;2023-02-19T04:07:13;94058.09;;;6.15;58.95
61870;BME280;47810;42.264;23.826;2023-02-19T04:09:42;94050.81;;;6.40;58.10
61870;BME280;47810;42.264;23.826;2023-02-19T04:12:09;94057.91;;;5.99;58.86
61870;BME280;47810;42.264;23.826;2023-02-19T04:14:40;94076.13;;;6.02;59.57
61870;BME280;47810;42.264;23.826;2023-02-19T04:17:10;94066.34;;;6.05;58.73
61870;BME280;47810;42.264;23.826;2023-02-19T04:19:39;94075.44;;;6.17;59.13
61870;BME280;47810;42.264;23.826;2023-02-19T04:22:07;94072.66;;;6.01;58.87
61870;BME280;47810;42.264;23.826;2023-02-19T04:24:37;94071.53;;;5.87;59.43
61870;BME280;47810;42.264;23.826;2023-02-19T04:27:04;94067.28;;;6.04;59.31
61870;BME280;47810;42.264;23.826;2023-02-19T04:29:30;94087.59;;;5.99;59.99
61870;BME280;47810;42.264;23.826;2023-02-19T04:31:56;94086.63;;;6.02;59.18
61870;BME280;47810;42.264;23.826;2023-02-19T04:34:22;94083.34;;;5.97;58.86
61870;BME280;47810;42.264;23.826;2023-02-19T04:36:47;94082.13;;;6.24;57.84
61870;BME280;47810;42.264;23.826;2023-02-19T04:39:14;94090.50;;;6.33;56.91
61870;BME280;47810;42.264;23.826;2023-02-19T04:41:40;94081.31;;;6.22;56.92
61870;BME280;47810;42.264;23.826;2023-02-19T04:44:06;94091.75;;;6.24;57.39
61870;BME280;47810;42.264;23.826;2023-02-19T04:46:33;94091.31;;;6.14;57.50
61870;BME280;47810;42.264;23.826;2023-02-19T04:48:58;94099.38;;;6.10;58.11
61870;BME280;47810;42.264;23.826;2023-02-19T04:51:25;94101.53;;;6.20;58.11
61870;BME280;47810;42.264;23.826;2023-02-19T04:53:54;94102.72;;;6.32;57.59
61870;BME280;47810;42.264;23.826;2023-02-19T04:56:20;94114.13;;;6.12;57.68
61870;BME280;47810;42.264;23.826;2023-02-19T04:58:46;94114.41;;;6.25;57.38
61870;BME280;47810;42.264;23.826;2023-02-19T05:01:14;94110.16;;;6.22;57.11
61870;BME280;47810;42.264;23.826;2023-02-19T05:03:40;94119.22;;;6.15;57.31
61870;BME280;47810;42.264;23.826;2023-02-19T05:06:07;94120.66;;;6.22;57.30
61870;BME280;47810;42.264;23.826;2023-02-19T05:08:33;94125.84;;;6.03;58.08
61870;BME280;47810;42.264;23.826;2023-02-19T05:11:00;94118.69;;;6.27;57.50
61870;BME280;47810;42.264;23.826;2023-02-19T05:13:26;94128.16;;;6.11;57.71
61870;BME280;47810;42.264;23.826;2023-02-19T05:15:56;94128.00;;;6.14;58.05
61870;BME280;47810;42.264;23.826;2023-02-19T05:18:22;94129.72;;;6.15;57.57
61870;BME280;47810;42.264;23.826;2023-02-19T05:20:48;94129.44;;;6.21;57.78
61870;BME280;47810;42.264;23.826;2023-02-19T05:23:13;94128.28;;;6.08;57.67
61870;BME280;47810;42.264;23.826;2023-02-19T05:25:40;94132.84;;;5.82;58.74
61870;BME280;47810;42.264;23.826;2023-02-19T05:28:05;94135.72;;;5.76;59.20
61870;BME280;47810;42.264;23.826;2023-02-19T05:30:50;94145.06;;;5.61;60.01
61870;BME280;47810;42.264;23.826;2023-02-19T05:33:19;94150.38;;;5.80;59.61
61870;BME280;47810;42.264;23.826;2023-02-19T05:35:46;94149.88;;;5.72;59.53
61870;BME280;47810;42.264;23.826;2023-02-19T05:38:11;94156.53;;;5.59;59.21
61870;BME280;47810;42.264;23.826;2023-02-19T05:40:37;94153.94;;;5.79;58.66
61870;BME280;47810;42.264;23.826;2023-02-19T05:43:06;94148.94;;;5.95;57.99
61870;BME280;47810;42.264;23.826;2023-02-19T05:45:34;94153.56;;;6.09;57.32
61870;BME280;47810;42.264;23.826;2023-02-19T05:48:00;94155.88;;;6.17;57.02
61870;BME280;47810;42.264;23.826;2023-02-19T05:50:26;94168.91;;;6.18;57.55
61870;BME280;47810;42.264;23.826;2023-02-19T05:52:52;94167.78;;;6.03;57.54
61870;BME280;47810;42.264;23.826;2023-02-19T05:55:19;94178.31;;;6.22;57.03
61870;BME280;47810;42.264;23.826;2023-02-19T05:57:45;94181.13;;;6.59;55.87
61870;BME280;47810;42.264;23.826;2023-02-19T06:00:12;94180.84;;;6.84;55.03
61870;BME280;47810;42.264;23.826;2023-02-19T06:02:38;94184.81;;;7.11;54.45
61870;BME280;47810;42.264;23.826;2023-02-19T06:05:03;94183.75;;;7.34;53.78
61870;BME280;47810;42.264;23.826;2023-02-19T06:07:30;94180.09;;;7.56;53.81
61870;BME280;47810;42.264;23.826;2023-02-19T06:09:56;94175.03;;;7.87;52.61
61870;BME280;47810;42.264;23.826;2023-02-19T06:12:21;94166.59;;;7.98;52.46
61870;BME280;47810;42.264;23.826;2023-02-19T06:14:47;94159.03;;;8.09;52.64
61870;BME280;47810;42.264;23.826;2023-02-19T06:17:14;94165.50;;;8.20;52.11
61870;BME280;47810;42.264;23.826;2023-02-19T06:19:40;94159.84;;;8.27;51.59
61870;BME280;47810;42.264;23.826;2023-02-19T06:22:07;94164.19;;;8.28;51.88
61870;BME280;47810;42.264;23.826;2023-02-19T06:24:33;94159.63;;;8.32;52.06
61870;BME280;47810;42.264;23.826;2023-02-19T06:27:05;94155.72;;;8.56;51.06
61870;BME280;47810;42.264;23.826;2023-02-19T06:29:31;94154.03;;;8.55;51.79
61870;BME280;47810;42.264;23.826;2023-02-19T06:31:57;94159.41;;;8.70;51.27
61870;BME280;47810;42.264;23.826;2023-02-19T06:34:23;94154.50;;;8.79;51.44
61870;BME280;47810;42.264;23.826;2023-02-19T06:36:48;94154.28;;;8.84;51.22
61870;BME280;47810;42.264;23.826;2023-02-19T06:39:15;94156.75;;;8.87;51.60
61870;BME280;47810;42.264;23.826;2023-02-19T06:41:41;94165.22;;;8.92;51.56
61870;BME280;47810;42.264;23.826;2023-02-19T06:44:07;94170.66;;;8.89;51.66
61870;BME280;47810;42.264;23.826;2023-02-19T06:46:33;94174.75;;;8.95;51.76
61870;BME280;47810;42.264;23.826;2023-02-19T06:49:02;94179.69;;;9.17;51.69
61870;BME280;47810;42.264;23.826;2023-02-19T06:51:28;94182.59;;;9.12;50.78
61870;BME280;47810;42.264;23.826;2023-02-19T06:53:55;94181.03;;;9.08;51.59
61870;BME280;47810;42.264;23.826;2023-02-19T06:58:54;94177.91;;;9.33;51.18
61870;BME280;47810;42.264;23.826;2023-02-19T07:01:22;94187.72;;;9.31;50.56
61870;BME280;47810;42.264;23.826;2023-02-19T07:03:50;94180.56;;;9.33;50.54
61870;BME280;47810;42.264;23.826;2023-02-19T07:06:17;94177.47;;;9.56;50.10
61870;BME280;47810;42.264;23.826;2023-02-19T07:08:42;94192.28;;;9.43;49.68
61870;BME280;47810;42.264;23.826;2023-02-19T07:11:08;94178.34;;;9.41;49.98
61870;BME280;47810;42.264;23.826;2023-02-19T07:13:34;94177.69;;;9.53;49.59
61870;BME280;47810;42.264;23.826;2023-02-19T07:16:04;94177.06;;;9.64;49.74
61870;BME280;47810;42.264;23.826;2023-02-19T07:18:33;94172.41;;;9.53;49.64
61870;BME280;47810;42.264;23.826;2023-02-19T07:21:12;94176.63;;;9.72;49.65
61870;BME280;47810;42.264;23.826;2023-02-19T07:23:40;94174.59;;;9.77;49.47
61870;BME280;47810;42.264;23.826;2023-02-19T07:26:11;94175.44;;;9.77;48.99
61870;BME280;47810;42.264;23.826;2023-02-19T07:28:45;94179.84;;;9.77;49.08
61870;BME280;47810;42.264;23.826;2023-02-19T07:31:12;94175.22;;;9.96;48.85
61870;BME280;47810;42.264;23.826;2023-02-19T07:33:41;94171.69;;;10.12;48.69
61870;BME280;47810;42.264;23.826;2023-02-19T07:36:07;94174.72;;;10.20;47.27
61870;BME280;47810;42.264;23.826;2023-02-19T07:38:33;94171.75;;;10.26;47.77
61870;BME280;47810;42.264;23.826;2023-02-19T07:41:00;94168.31;;;10.24;48.54
61870;BME280;47810;42.264;23.826;2023-02-19T07:43:29;94169.16;;;10.40;47.65
61870;BME280;47810;42.264;23.826;2023-02-19T07:45:56;94177.09;;;10.55;47.48
61870;BME280;47810;42.264;23.826;2023-02-19T07:51:06;94169.19;;;10.69;47.44
61870;BME280;47810;42.264;23.826;2023-02-19T07:53:35;94173.72;;;10.67;47.24
61870;BME280;47810;42.264;23.826;2023-02-19T07:56:03;94169.78;;;10.88;46.39
61870;BME280;47810;42.264;23.826;2023-02-19T07:58:29;94172.31;;;10.90;46.36
61870;BME280;47810;42.264;23.826;2023-02-19T08:01:04;94169.94;;;11.14;45.91
61870;BME280;47810;42.264;23.826;2023-02-19T08:03:31;94162.28;;;11.09;45.56
61870;BME280;47810;42.264;23.826;2023-02-19T08:05:57;94160.88;;;11.18;45.82
61870;BME280;47810;42.264;23.826;2023-02-19T08:08:22;94153.16;;;11.42;45.33
61870;BME280;47810;42.264;23.826;2023-02-19T08:10:49;94161.22;;;11.40;45.24
61870;BME280;47810;42.264;23.826;2023-02-19T08:13:34;94155.09;;;11.67;44.74
61870;BME280;47810;42.264;23.826;2023-02-19T08:16:08;94154.19;;;11.81;45.00
61870;BME280;47810;42.264;23.826;2023-02-19T08:18:34;94155.97;;;11.95;44.18
61870;BME280;47810;42.264;23.826;2023-02-19T08:21:00;94153.41;;;12.20;43.91
61870;BME280;47810;42.264;23.826;2023-02-19T08:23:31;94155.22;;;12.45;42.62
61870;BME280;47810;42.264;23.826;2023-02-19T08:26:08;94152.91;;;12.66;43.77
61870;BME280;47810;42.264;23.826;2023-02-19T08:28:35;94148.44;;;13.05;42.64
61870;BME280;47810;42.264;23.826;2023-02-19T08:31:04;94146.34;;;13.10;42.51
61870;BME280;47810;42.264;23.826;2023-02-19T08:33:42;94143.13;;;13.31;41.32
61870;BME280;47810;42.264;23.826;2023-02-19T08:36:14;94136.47;;;13.62;40.94
61870;BME280;47810;42.264;23.826;2023-02-19T08:38:41;94136.88;;;13.68;40.89
61870;BME280;47810;42.264;23.826;2023-02-19T08:43:53;94129.81;;;14.04;40.84
61870;BME280;47810;42.264;23.826;2023-02-19T08:46:25;94126.69;;;14.10;40.31
61870;BME280;47810;42.264;23.826;2023-02-19T08:51:52;94128.84;;;14.40;39.42
61870;BME280;47810;42.264;23.826;2023-02-19T08:54:20;94127.53;;;14.46;40.43
61870;BME280;47810;42.264;23.826;2023-02-19T08:56:46;94127.84;;;14.65;39.04
61870;BME280;47810;42.264;23.826;2023-02-19T08:59:12;94124.97;;;14.68;39.34
61870;BME280;47810;42.264;23.826;2023-02-19T09:01:39;94117.50;;;14.85;38.85
61870;BME280;47810;42.264;23.826;2023-02-19T09:04:04;94118.69;;;14.92;38.40
61870;BME280;47810;42.264;23.826;2023-02-19T09:06:35;94115.94;;;15.16;38.18
61870;BME280;47810;42.264;23.826;2023-02-19T09:09:00;94102.75;;;15.14;38.14
61870;BME280;47810;42.264;23.826;2023-02-19T09:11:31;94105.38;;;15.48;37.74
61870;BME280;47810;42.264;23.826;2023-02-19T09:14:03;94105.38;;;15.71;37.19
61870;BME280;47810;42.264;23.826;2023-02-19T09:16:34;94106.78;;;15.86;37.20
61870;BME280;47810;42.264;23.826;2023-02-19T09:19:01;94097.66;;;16.00;35.90
61870;BME280;47810;42.264;23.826;2023-02-19T09:21:28;94094.81;;;16.13;36.15
61870;BME280;47810;42.264;23.826;2023-02-19T09:23:56;94091.16;;;16.14;36.17
61870;BME280;47810;42.264;23.826;2023-02-19T09:26:23;94088.84;;;15.88;36.70
61870;BME280;47810;42.264;23.826;2023-02-19T09:28:49;94085.84;;;16.14;36.40
61870;BME280;47810;42.264;23.826;2023-02-19T09:31:19;94081.75;;;16.30;36.84
61870;BME280;47810;42.264;23.826;2023-02-19T09:33:46;94085.34;;;16.62;36.13
61870;BME280;47810;42.264;23.826;2023-02-19T09:36:12;94088.06;;;16.71;36.03
61870;BME280;47810;42.264;23.826;2023-02-19T09:38:38;94096.16;;;16.81;35.78
61870;BME280;47810;42.264;23.826;2023-02-19T09:41:06;94085.84;;;16.97;34.91
61870;BME280;47810;42.264;23.826;2023-02-19T09:43:33;94088.78;;;17.25;34.41
61870;BME280;47810;42.264;23.826;2023-02-19T09:48:32;94083.63;;;17.83;34.05
61870;BME280;47810;42.264;23.826;2023-02-19T09:56:26;94064.81;;;18.04;32.97
61870;BME280;47810;42.264;23.826;2023-02-19T09:59:03;94057.63;;;18.24;33.24
61870;BME280;47810;42.264;23.826;2023-02-19T10:01:43;94050.72;;;18.31;32.52
61870;BME280;47810;42.264;23.826;2023-02-19T10:06:52;94054.44;;;17.11;33.27
61870;BME280;47810;42.264;23.826;2023-02-19T10:09:24;94049.41;;;17.58;33.67
61870;BME280;47810;42.264;23.826;2023-02-19T10:11:55;94048.56;;;17.57;35.29
61870;BME280;47810;42.264;23.826;2023-02-19T10:19:45;94032.72;;;18.43;33.14
61870;BME280;47810;42.264;23.826;2023-02-19T10:30:02;94010.34;;;19.01;31.83
61870;BME280;47810;42.264;23.826;2023-02-19T10:38:07;93998.56;;;18.84;32.17
61870;BME280;47810;42.264;23.826;2023-02-19T10:40:50;93987.06;;;19.29;32.96
61870;BME280;47810;42.264;23.826;2023-02-19T10:46:33;93988.28;;;19.62;30.43
61870;BME280;47810;42.264;23.826;2023-02-19T10:49:01;93988.34;;;19.07;32.90
61870;BME280;47810;42.264;23.826;2023-02-19T10:51:45;93974.44;;;19.21;32.24
61870;BME280;47810;42.264;23.826;2023-02-19T11:03:41;93958.09;;;19.70;29.79
61870;BME280;47810;42.264;23.826;2023-02-19T11:06:15;93961.00;;;20.56;29.99
61870;BME280;47810;42.264;23.826;2023-02-19T11:12:03;93944.84;;;20.30;30.37
61870;BME280;47810;42.264;23.826;2023-02-19T11:17:32;93936.34;;;20.87;28.93
61870;BME280;47810;42.264;23.826;2023-02-19T11:35:47;93913.13;;;21.71;27.72
61870;BME280;47810;42.264;23.826;2023-02-19T11:56:30;93889.25;;;21.76;27.54
61870;BME280;47810;42.264;23.826;2023-02-19T12:05:33;93860.22;;;22.20;24.65
61870;BME280;47810;42.264;23.826;2023-02-19T12:29:28;93830.88;;;24.21;25.73
61870;BME280;47810;42.264;23.826;2023-02-19T12:37:52;93820.53;;;24.24;24.22
61870;BME280;47810;42.264;23.826;2023-02-19T12:40:42;93807.88;;;24.25;23.55
61870;BME280;47810;42.264;23.826;2023-02-19T12:54:41;93788.63;;;24.43;24.80
61870;BME280;47810;42.264;23.826;2023-02-19T13:05:52;93765.16;;;24.28;24.91
61870;BME280;47810;42.264;23.826;2023-02-19T13:08:29;93763.91;;;24.01;24.43
61870;BME280;47810;42.264;23.826;2023-02-19T13:38:12;93721.53;;;22.18;26.19
61870;BME280;47810;42.264;23.826;2023-02-19T14:08:02;93669.78;;;22.16;25.75
61870;BME280;47810;42.264;23.826;2023-02-19T14:16:09;93674.31;;;20.86;25.36
61870;BME280;47810;42.264;23.826;2023-02-19T14:26:44;93672.09;;;20.57;26.84
61870;BME280;47810;42.264;23.826;2023-02-19T14:29:11;93657.88;;;20.64;27.25
61870;BME280;47810;42.264;23.826;2023-02-19T14:31:42;93675.59;;;20.49;28.53
61870;BME280;47810;42.264;23.826;2023-02-19T14:34:21;93670.84;;;20.27;28.09
61870;BME280;47810;42.264;23.826;2023-02-19T14:36:51;93666.09;;;19.18;29.73
61870;BME280;47810;42.264;23.826;2023-02-19T14:39:26;93671.78;;;18.25;31.81
61870;BME280;47810;42.264;23.826;2023-02-19T14:41:55;93668.44;;;18.59;31.75
61870;BME280;47810;42.264;23.826;2023-02-19T14:47:12;93660.34;;;17.50;32.67
61870;BME280;47810;42.264;23.826;2023-02-19T14:52:11;93662.75;;;16.96;33.46
61870;BME280;47810;42.264;23.826;2023-02-19T14:57:11;93668.47;;;16.24;34.81
61870;BME280;47810;42.264;23.826;2023-02-19T14:59:40;93667.78;;;16.02;35.58
61870;BME280;47810;42.264;23.826;2023-02-19T15:02:15;93661.16;;;15.87;35.39
61870;BME280;47810;42.264;23.826;2023-02-19T15:04:47;93656.81;;;15.86;35.68
61870;BME280;47810;42.264;23.826;2023-02-19T15:07:14;93665.91;;;15.53;36.08
61870;BME280;47810;42.264;23.826;2023-02-19T15:09:46;93661.84;;;15.18;37.18
61870;BME280;47810;42.264;23.826;2023-02-19T15:12:13;93663.75;;;15.06;37.28
61870;BME280;47810;42.264;23.826;2023-02-19T15:14:41;93665.59;;;14.85;37.16
61870;BME280;47810;42.264;23.826;2023-02-19T15:17:09;93669.91;;;14.86;37.70
61870;BME280;47810;42.264;23.826;2023-02-19T15:19:39;93668.59;;;14.71;38.17
61870;BME280;47810;42.264;23.826;2023-02-19T15:22:13;93663.03;;;14.41;38.46
61870;BME280;47810;42.264;23.826;2023-02-19T15:24:42;93674.59;;;14.19;38.50
61870;BME280;47810;42.264;23.826;2023-02-19T15:27:12;93666.97;;;14.47;38.62
61870;BME280;47810;42.264;23.826;2023-02-19T15:32:28;93667.28;;;14.33;38.53
61870;BME280;47810;42.264;23.826;2023-02-19T15:35:00;93662.75;;;14.12;39.14
61870;BME280;47810;42.264;23.826;2023-02-19T15:39:57;93669.72;;;14.25;39.46
61870;BME280;47810;42.264;23.826;2023-02-19T15:42:27;93671.03;;;13.98;38.85
61870;BME280;47810;42.264;23.826;2023-02-19T15:44:58;93664.81;;;14.20;38.49
61870;BME280;47810;42.264;23.826;2023-02-19T15:49:59;93661.69;;;13.71;39.28
61870;BME280;47810;42.264;23.826;2023-02-19T15:52:35;93664.78;;;13.88;38.84
61870;BME280;47810;42.264;23.826;2023-02-19T15:55:06;93668.81;;;13.71;39.06
61870;BME280;47810;42.264;23.826;2023-02-19T15:57:39;93667.69;;;13.73;39.01
61870;BME280;47810;42.264;23.826;2023-02-19T16:00:16;93672.59;;;13.46;39.34
61870;BME280;47810;42.264;23.826;2023-02-19T16:02:45;93672.09;;;13.41;40.08
61870;BME280;47810;42.264;23.826;2023-02-19T16:05:15;93669.94;;;13.46;39.79
61870;BME280;47810;42.264;23.826;2023-02-19T16:07:54;93671.38;;;13.50;39.05
61870;BME280;47810;42.264;23.826;2023-02-19T16:10:30;93677.41;;;13.41;40.02
61870;BME280;47810;42.264;23.826;2023-02-19T16:13:02;93664.59;;;13.23;39.77
61870;BME280;47810;42.264;23.826;2023-02-19T16:15:29;93665.81;;;13.08;39.85
61870;BME280;47810;42.264;23.826;2023-02-19T16:17:55;93673.50;;;13.00;40.32
61870;BME280;47810;42.264;23.826;2023-02-19T16:20:28;93670.13;;;12.98;40.54
61870;BME280;47810;42.264;23.826;2023-02-19T16:23:01;93680.47;;;12.78;40.64
61870;BME280;47810;42.264;23.826;2023-02-19T16:28:08;93682.66;;;12.85;40.95
61870;BME280;47810;42.264;23.826;2023-02-19T16:30:34;93683.69;;;12.71;40.56
61870;BME280;47810;42.264;23.826;2023-02-19T16:33:19;93685.50;;;12.59;41.42
61870;BME280;47810;42.264;23.826;2023-02-19T16:35:47;93689.81;;;12.49;41.84
61870;BME280;47810;42.264;23.826;2023-02-19T16:38:17;93697.38;;;12.53;41.25
61870;BME280;47810;42.264;23.826;2023-02-19T16:45:43;93695.78;;;12.40;41.78
61870;BME280;47810;42.264;23.826;2023-02-19T16:48:09;93702.06;;;12.50;41.64
61870;BME280;47810;42.264;23.826;2023-02-19T16:50:37;93708.41;;;12.36;41.79
61870;BME280;47810;42.264;23.826;2023-02-19T16:53:05;93712.13;;;12.33;41.94
61870;BME280;47810;42.264;23.826;2023-02-19T16:55:31;93715.22;;;12.27;41.71
61870;BME280;47810;42.264;23.826;2023-02-19T16:57:59;93715.72;;;12.32;41.33
61870;BME280;47810;42.264;23.826;2023-02-19T17:00:26;93713.28;;;12.29;41.54
61870;BME280;47810;42.264;23.826;2023-02-19T17:02:52;93710.19;;;12.35;41.23
61870;BME280;47810;42.264;23.826;2023-02-19T17:05:19;93714.63;;;12.24;40.88
61870;BME280;47810;42.264;23.826;2023-02-19T17:07:46;93713.81;;;12.34;40.85
61870;BME280;47810;42.264;23.826;2023-02-19T17:10:13;93712.84;;;12.35;40.42
61870;BME280;47810;42.264;23.826;2023-02-19T17:12:40;93717.41;;;12.33;40.61
61870;BME280;47810;42.264;23.826;2023-02-19T17:15:05;93712.75;;;12.37;40.12
61870;BME280;47810;42.264;23.826;2023-02-19T17:17:32;93712.91;;;11.99;40.76
61870;BME280;47810;42.264;23.826;2023-02-19T17:19:59;93718.72;;;12.04;40.92
61870;BME280;47810;42.264;23.826;2023-02-19T17:22:24;93719.34;;;12.07;41.17
61870;BME280;47810;42.264;23.826;2023-02-19T17:24:50;93713.94;;;12.09;40.45
61870;BME280;47810;42.264;23.826;2023-02-19T17:27:16;93722.16;;;12.17;40.35
61870;BME280;47810;42.264;23.826;2023-02-19T17:29:41;93727.38;;;12.06;41.13
61870;BME280;47810;42.264;23.826;2023-02-19T17:32:07;93732.97;;;11.77;41.87
61870;BME280;47810;42.264;23.826;2023-02-19T17:34:32;93733.91;;;11.89;41.36